sensor_id;sensor_type;location;lat;lon;timestamp;temperature;humidity
25328;DHT22;13279;51.300;12.394;2023-03-11T00:00:43;1.60;99.90
25328;DHT22;13279;51.300;12.394;2023-03-11T00:03:13;1.60;99.90
25328;DHT22;13279;51.300;12.394;2023-03-11T00:05:42;1.50;99.90
25328;DHT22;13279;51.300;12.394;2023-03-11T00:08:12;1.60;99.90
25328;DHT22;13279;51.300;12.394;2023-03-11T00:10:42;1.50;99.90
25328;DHT22;13279;51.300;12.394;2023-03-11T00:13:12;1.50;99.90
25328;DHT22;13279;51.300;12.394;2023-03-11T00:15:43;1.40;99.90
25328;DHT22;13279;51.300;12.394;2023-03-11T00:18:12;1.40;99.90
25328;DHT22;13279;51.300;12.394;2023-03-11T00:20:42;1.40;99.90
25328;DHT22;13279;51.300;12.394;2023-03-11T00:23:13;1.30;99.90
25328;DHT22;13279;51.300;12.394;2023-03-11T00:25:42;1.30;99.90
25328;DHT22;13279;51.300;12.394;2023-03-11T00:28:11;1.30;99.90
25328;DHT22;13279;51.300;12.394;2023-03-11T00:30:42;1.20;99.90
25328;DHT22;13279;51.300;12.394;2023-03-11T00:33:14;1.20;99.90
25328;DHT22;13279;51.300;12.394;2023-03-11T00:35:42;1.20;99.90
25328;DHT22;13279;51.300;12.394;2023-03-11T00:38:12;1.20;99.90
25328;DHT22;13279;51.300;12.394;2023-03-11T00:40:40;1.20;99.90
25328;DHT22;13279;51.300;12.394;2023-03-11T00:43:09;1.20;99.90
25328;DHT22;13279;51.300;12.394;2023-03-11T00:45:37;1.10;99.90
25328;DHT22;13279;51.300;12.394;2023-03-11T00:48:06;1.10;99.90
25328;DHT22;13279;51.300;12.394;2023-03-11T00:50:36;1.10;99.90
25328;DHT22;13279;51.300;12.394;2023-03-11T00:53:05;1.00;99.90
25328;DHT22;13279;51.300;12.394;2023-03-11T00:55:33;1.10;99.90
25328;DHT22;13279;51.300;12.394;2023-03-11T00:58:06;1.00;99.90
25328;DHT22;13279;51.300;12.394;2023-03-11T01:00:40;1.00;99.90
25328;DHT22;13279;51.300;12.394;2023-03-11T01:03:09;1.00;99.90
25328;DHT22;13279;51.300;12.394;2023-03-11T01:05:37;1.00;99.90
25328;DHT22;13279;51.300;12.394;2023-03-11T01:08:05;1.00;99.90
25328;DHT22;13279;51.300;12.394;2023-03-11T01:10:36;1.00;99.90
25328;DHT22;13279;51.300;12.394;2023-03-11T01:13:04;1.00;99.90
25328;DHT22;13279;51.300;12.394;2023-03-11T01:15:35;1.00;99.90
25328;DHT22;13279;51.300;12.394;2023-03-11T01:18:04;1.00;99.90
25328;DHT22;13279;51.300;12.394;2023-03-11T01:20:34;1.00;99.90
25328;DHT22;13279;51.300;12.394;2023-03-11T01:23:04;1.00;99.90
25328;DHT22;13279;51.300;12.394;2023-03-11T01:25:36;1.00;99.90
25328;DHT22;13279;51.300;12.394;2023-03-11T01:28:04;1.00;99.90
25328;DHT22;13279;51.300;12.394;2023-03-11T01:30:34;1.00;99.90
25328;DHT22;13279;51.300;12.394;2023-03-11T01:33:03;1.00;99.90
25328;DHT22;13279;51.300;12.394;2023-03-11T01:35:31;1.00;99.90
25328;DHT22;13279;51.300;12.394;2023-03-11T01:38:02;1.00;99.90
25328;DHT22;13279;51.300;12.394;2023-03-11T01:40:35;0.90;99.90
25328;DHT22;13279;51.300;12.394;2023-03-11T01:46:09;0.90;99.90
25328;DHT22;13279;51.300;12.394;2023-03-11T01:48:38;0.90;99.90
25328;DHT22;13279;51.300;12.394;2023-03-11T01:51:08;0.90;99.90
25328;DHT22;13279;51.300;12.394;2023-03-11T01:53:37;0.90;99.90
25328;DHT22;13279;51.300;12.394;2023-03-11T01:56:06;0.90;99.90
25328;DHT22;13279;51.300;12.394;2023-03-11T01:58:36;0.90;99.90
25328;DHT22;13279;51.300;12.394;2023-03-11T02:01:06;0.90;99.90
25328;DHT22;13279;51.300;12.394;2023-03-11T02:03:36;0.90;99.90
25328;DHT22;13279;51.300;12.394;2023-03-11T02:06:07;0.90;99.90
25328;DHT22;13279;51.300;12.394;2023-03-11T02:08:37;0.90;99.90
25328;DHT22;13279;51.300;12.394;2023-03-11T02:11:09;0.90;99.90
25328;DHT22;13279;51.300;12.394;2023-03-11T02:13:39;0.80;99.90
25328;DHT22;13279;51.300;12.394;2023-03-11T02:16:08;0.80;99.90
25328;DHT22;13279;51.300;12.394;2023-03-11T02:18:36;0.80;99.90
25328;DHT22;13279;51.300;12.394;2023-03-11T02:21:11;0.80;99.90
25328;DHT22;13279;51.300;12.394;2023-03-11T02:23:50;0.80;99.90
25328;DHT22;13279;51.300;12.394;2023-03-11T02:26:23;0.80;99.90
25328;DHT22;13279;51.300;12.394;2023-03-11T02:28:57;0.80;99.90
25328;DHT22;13279;51.300;12.394;2023-03-11T02:31:27;0.70;99.90
25328;DHT22;13279;51.300;12.394;2023-03-11T02:33:57;0.70;99.90
25328;DHT22;13279;51.300;12.394;2023-03-11T02:36:31;0.70;99.90
25328;DHT22;13279;51.300;12.394;2023-03-11T02:38:59;0.70;99.90
25328;DHT22;13279;51.300;12.394;2023-03-11T02:41:29;0.80;99.90
25328;DHT22;13279;51.300;12.394;2023-03-11T02:44:00;0.70;99.90
25328;DHT22;13279;51.300;12.394;2023-03-11T02:46:30;0.70;99.90
25328;DHT22;13279;51.300;12.394;2023-03-11T02:48:59;0.70;99.90
25328;DHT22;13279;51.300;12.394;2023-03-11T02:51:27;0.70;99.90
25328;DHT22;13279;51.300;12.394;2023-03-11T02:53:58;0.70;99.90
25328;DHT22;13279;51.300;12.394;2023-03-11T02:56:28;0.70;99.90
25328;DHT22;13279;51.300;12.394;2023-03-11T02:58:56;0.70;99.90
25328;DHT22;13279;51.300;12.394;2023-03-11T03:01:28;0.70;99.90
25328;DHT22;13279;51.300;12.394;2023-03-11T03:03:56;0.70;99.90
25328;DHT22;13279;51.300;12.394;2023-03-11T03:06:24;0.80;99.90
25328;DHT22;13279;51.300;12.394;2023-03-11T03:08:53;0.70;99.90
25328;DHT22;13279;51.300;12.394;2023-03-11T03:11:21;0.70;99.90
25328;DHT22;13279;51.300;12.394;2023-03-11T03:13:48;0.70;99.90
25328;DHT22;13279;51.300;12.394;2023-03-11T03:16:16;0.70;99.90
25328;DHT22;13279;51.300;12.394;2023-03-11T03:18:46;0.70;99.90
25328;DHT22;13279;51.300;12.394;2023-03-11T03:21:14;0.70;99.90
25328;DHT22;13279;51.300;12.394;2023-03-11T03:23:41;0.70;99.90
25328;DHT22;13279;51.300;12.394;2023-03-11T03:26:12;0.80;99.90
25328;DHT22;13279;51.300;12.394;2023-03-11T03:28:42;0.70;99.90
25328;DHT22;13279;51.300;12.394;2023-03-11T03:31:10;0.70;99.90
25328;DHT22;13279;51.300;12.394;2023-03-11T03:33:40;0.70;99.90
25328;DHT22;13279;51.300;12.394;2023-03-11T03:36:12;0.70;99.90
25328;DHT22;13279;51.300;12.394;2023-03-11T03:38:47;0.70;99.90
25328;DHT22;13279;51.300;12.394;2023-03-11T03:41:15;0.80;99.90
25328;DHT22;13279;51.300;12.394;2023-03-11T03:43:44;0.70;99.90
25328;DHT22;13279;51.300;12.394;2023-03-11T03:46:12;0.70;99.90
25328;DHT22;13279;51.300;12.394;2023-03-11T03:48:43;0.70;99.90
25328;DHT22;13279;51.300;12.394;2023-03-11T03:51:14;0.70;99.90
25328;DHT22;13279;51.300;12.394;2023-03-11T03:53:53;0.70;99.90
25328;DHT22;13279;51.300;12.394;2023-03-11T03:56:24;0.80;99.90
25328;DHT22;13279;51.300;12.394;2023-03-11T03:58:52;0.70;99.90
25328;DHT22;13279;51.300;12.394;2023-03-11T04:01:21;0.80;99.90
25328;DHT22;13279;51.300;12.394;2023-03-11T04:03:49;0.80;99.90
25328;DHT22;13279;51.300;12.394;2023-03-11T04:06:19;0.70;99.90
25328;DHT22;13279;51.300;12.394;2023-03-11T04:08:53;0.80;99.90
25328;DHT22;13279;51.300;12.394;2023-03-11T04:11:26;0.80;99.90
25328;DHT22;13279;51.300;12.394;2023-03-11T04:13:54;0.80;99.90
25328;DHT22;13279;51.300;12.394;2023-03-11T04:16:22;0.80;99.90
25328;DHT22;13279;51.300;12.394;2023-03-11T04:18:54;0.80;99.90
25328;DHT22;13279;51.300;12.394;2023-03-11T04:21:27;0.70;99.90
25328;DHT22;13279;51.300;12.394;2023-03-11T04:23:56;0.80;99.90
25328;DHT22;13279;51.300;12.394;2023-03-11T04:26:28;0.70;99.90
25328;DHT22;13279;51.300;12.394;2023-03-11T04:28:56;0.80;99.90
25328;DHT22;13279;51.300;12.394;2023-03-11T04:31:25;0.80;99.90
25328;DHT22;13279;51.300;12.394;2023-03-11T04:33:54;0.70;99.90
25328;DHT22;13279;51.300;12.394;2023-03-11T04:36:22;0.70;99.90
25328;DHT22;13279;51.300;12.394;2023-03-11T04:38:51;0.70;99.90
25328;DHT22;13279;51.300;12.394;2023-03-11T04:41:20;0.70;99.90
25328;DHT22;13279;51.300;12.394;2023-03-11T04:43:51;0.80;99.90
25328;DHT22;13279;51.300;12.394;2023-03-11T04:46:19;0.80;99.90
25328;DHT22;13279;51.300;12.394;2023-03-11T04:48:47;0.70;99.90
25328;DHT22;13279;51.300;12.394;2023-03-11T04:51:14;0.80;99.90
25328;DHT22;13279;51.300;12.394;2023-03-11T04:53:42;0.80;99.90
25328;DHT22;13279;51.300;12.394;2023-03-11T04:56:11;0.80;99.90
25328;DHT22;13279;51.300;12.394;2023-03-11T04:58:39;0.80;99.90
25328;DHT22;13279;51.300;12.394;2023-03-11T05:01:07;0.80;99.90
25328;DHT22;13279;51.300;12.394;2023-03-11T05:03:40;0.80;99.90
25328;DHT22;13279;51.300;12.394;2023-03-11T05:06:13;0.80;99.90
25328;DHT22;13279;51.300;12.394;2023-03-11T05:08:41;0.80;99.90
25328;DHT22;13279;51.300;12.394;2023-03-11T05:11:08;0.80;99.90
25328;DHT22;13279;51.300;12.394;2023-03-11T05:13:37;0.80;99.90
25328;DHT22;13279;51.300;12.394;2023-03-11T05:16:07;0.80;99.90
25328;DHT22;13279;51.300;12.394;2023-03-11T05:18:35;0.80;99.90
25328;DHT22;13279;51.300;12.394;2023-03-11T05:21:03;0.80;99.90
25328;DHT22;13279;51.300;12.394;2023-03-11T05:23:33;0.80;99.90
25328;DHT22;13279;51.300;12.394;2023-03-11T05:26:01;0.80;99.90
25328;DHT22;13279;51.300;12.394;2023-03-11T05:28:32;0.80;99.90
25328;DHT22;13279;51.300;12.394;2023-03-11T05:31:07;0.80;99.90
25328;DHT22;13279;51.300;12.394;2023-03-11T05:33:36;0.80;99.90
25328;DHT22;13279;51.300;12.394;2023-03-11T05:36:07;0.80;99.90
25328;DHT22;13279;51.300;12.394;2023-03-11T05:38:40;0.80;99.90
25328;DHT22;13279;51.300;12.394;2023-03-11T05:41:08;0.80;99.90
25328;DHT22;13279;51.300;12.394;2023-03-11T05:43:36;0.80;99.90
25328;DHT22;13279;51.300;12.394;2023-03-11T05:46:08;0.80;99.90
25328;DHT22;13279;51.300;12.394;2023-03-11T05:48:37;0.80;99.90
25328;DHT22;13279;51.300;12.394;2023-03-11T05:51:06;0.80;99.90
25328;DHT22;13279;51.300;12.394;2023-03-11T05:53:34;0.80;99.90
25328;DHT22;13279;51.300;12.394;2023-03-11T05:56:02;0.80;99.90
25328;DHT22;13279;51.300;12.394;2023-03-11T05:58:31;0.80;99.90
25328;DHT22;13279;51.300;12.394;2023-03-11T06:00:59;0.80;99.90
25328;DHT22;13279;51.300;12.394;2023-03-11T06:03:31;0.80;99.90
25328;DHT22;13279;51.300;12.394;2023-03-11T06:06:01;0.80;99.90
25328;DHT22;13279;51.300;12.394;2023-03-11T06:08:37;0.80;99.90
25328;DHT22;13279;51.300;12.394;2023-03-11T06:11:09;0.80;99.90
25328;DHT22;13279;51.300;12.394;2023-03-11T06:13:38;0.70;99.90
25328;DHT22;13279;51.300;12.394;2023-03-11T06:16:09;0.80;99.90
25328;DHT22;13279;51.300;12.394;2023-03-11T06:18:40;0.80;99.90
25328;DHT22;13279;51.300;12.394;2023-03-11T06:21:10;0.80;99.90
25328;DHT22;13279;51.300;12.394;2023-03-11T06:23:42;0.80;99.90
25328;DHT22;13279;51.300;12.394;2023-03-11T06:28:56;0.90;99.90
25328;DHT22;13279;51.300;12.394;2023-03-11T06:31:25;0.90;99.90
25328;DHT22;13279;51.300;12.394;2023-03-11T06:34:02;0.80;99.90
25328;DHT22;13279;51.300;12.394;2023-03-11T06:36:34;0.80;99.90
25328;DHT22;13279;51.300;12.394;2023-03-11T06:39:10;0.80;99.90
25328;DHT22;13279;51.300;12.394;2023-03-11T06:41:41;0.90;99.90
25328;DHT22;13279;51.300;12.394;2023-03-11T06:44:12;0.90;99.90
25328;DHT22;13279;51.300;12.394;2023-03-11T06:46:42;0.80;99.90
25328;DHT22;13279;51.300;12.394;2023-03-11T06:49:13;0.80;99.90
25328;DHT22;13279;51.300;12.394;2023-03-11T06:51:50;0.80;99.90
25328;DHT22;13279;51.300;12.394;2023-03-11T06:54:27;0.90;99.90
25328;DHT22;13279;51.300;12.394;2023-03-11T06:56:57;0.90;99.90
25328;DHT22;13279;51.300;12.394;2023-03-11T06:59:24;0.90;99.90
25328;DHT22;13279;51.300;12.394;2023-03-11T07:01:55;0.90;99.90
25328;DHT22;13279;51.300;12.394;2023-03-11T07:04:27;0.90;99.90
25328;DHT22;13279;51.300;12.394;2023-03-11T07:06:58;0.80;99.90
25328;DHT22;13279;51.300;12.394;2023-03-11T07:09:29;0.80;99.90
25328;DHT22;13279;51.300;12.394;2023-03-11T07:11:57;0.80;99.90
25328;DHT22;13279;51.300;12.394;2023-03-11T07:14:30;0.80;99.90
25328;DHT22;13279;51.300;12.394;2023-03-11T07:16:58;0.80;99.90
25328;DHT22;13279;51.300;12.394;2023-03-11T07:19:43;0.80;99.90
25328;DHT22;13279;51.300;12.394;2023-03-11T07:22:15;0.80;99.90
25328;DHT22;13279;51.300;12.394;2023-03-11T07:24:47;0.70;99.90
25328;DHT22;13279;51.300;12.394;2023-03-11T07:27:18;0.90;99.90
25328;DHT22;13279;51.300;12.394;2023-03-11T07:30:03;0.80;99.90
25328;DHT22;13279;51.300;12.394;2023-03-11T07:32:31;0.80;99.90
25328;DHT22;13279;51.300;12.394;2023-03-11T07:35:00;0.90;99.90
25328;DHT22;13279;51.300;12.394;2023-03-11T07:37:27;0.90;99.90
25328;DHT22;13279;51.300;12.394;2023-03-11T07:39:57;0.90;99.90
25328;DHT22;13279;51.300;12.394;2023-03-11T07:42:24;0.90;99.90
25328;DHT22;13279;51.300;12.394;2023-03-11T07:44:53;0.90;99.90
25328;DHT22;13279;51.300;12.394;2023-03-11T07:47:20;0.90;99.90
25328;DHT22;13279;51.300;12.394;2023-03-11T07:49:52;1.00;99.90
25328;DHT22;13279;51.300;12.394;2023-03-11T07:52:21;1.00;99.90
25328;DHT22;13279;51.300;12.394;2023-03-11T07:54:48;1.00;99.90
25328;DHT22;13279;51.300;12.394;2023-03-11T07:57:16;1.00;99.90
25328;DHT22;13279;51.300;12.394;2023-03-11T07:59:44;1.00;99.90
25328;DHT22;13279;51.300;12.394;2023-03-11T08:02:28;1.10;99.90
25328;DHT22;13279;51.300;12.394;2023-03-11T08:04:56;1.10;99.90
25328;DHT22;13279;51.300;12.394;2023-03-11T08:07:30;1.10;99.90
25328;DHT22;13279;51.300;12.394;2023-03-11T08:10:01;1.10;99.90
25328;DHT22;13279;51.300;12.394;2023-03-11T08:16:07;1.10;99.90
25328;DHT22;13279;51.300;12.394;2023-03-11T08:18:35;1.10;99.90
25328;DHT22;13279;51.300;12.394;2023-03-11T08:21:04;1.10;99.90
25328;DHT22;13279;51.300;12.394;2023-03-11T08:23:33;1.10;99.90
25328;DHT22;13279;51.300;12.394;2023-03-11T08:26:02;1.10;99.90
25328;DHT22;13279;51.300;12.394;2023-03-11T08:28:30;1.10;99.90
25328;DHT22;13279;51.300;12.394;2023-03-11T08:30:58;1.10;99.90
25328;DHT22;13279;51.300;12.394;2023-03-11T08:33:26;1.10;99.90
25328;DHT22;13279;51.300;12.394;2023-03-11T08:35:53;1.10;99.90
25328;DHT22;13279;51.300;12.394;2023-03-11T08:38:21;1.00;99.90
25328;DHT22;13279;51.300;12.394;2023-03-11T08:40:49;1.10;99.90
25328;DHT22;13279;51.300;12.394;2023-03-11T08:43:17;1.10;99.90
25328;DHT22;13279;51.300;12.394;2023-03-11T08:45:44;1.20;99.90
25328;DHT22;13279;51.300;12.394;2023-03-11T08:48:12;1.20;99.90
25328;DHT22;13279;51.300;12.394;2023-03-11T08:50:40;1.20;99.90
25328;DHT22;13279;51.300;12.394;2023-03-11T08:53:08;1.20;99.90
25328;DHT22;13279;51.300;12.394;2023-03-11T08:55:35;1.20;99.90
25328;DHT22;13279;51.300;12.394;2023-03-11T08:58:04;1.20;99.90
25328;DHT22;13279;51.300;12.394;2023-03-11T09:00:32;1.20;99.90
25328;DHT22;13279;51.300;12.394;2023-03-11T09:03:00;1.30;99.90
25328;DHT22;13279;51.300;12.394;2023-03-11T09:05:27;1.30;99.90
25328;DHT22;13279;51.300;12.394;2023-03-11T09:07:55;1.40;99.90
25328;DHT22;13279;51.300;12.394;2023-03-11T09:10:22;1.40;99.90
25328;DHT22;13279;51.300;12.394;2023-03-11T09:12:49;1.40;99.90
25328;DHT22;13279;51.300;12.394;2023-03-11T09:15:18;1.40;99.90
25328;DHT22;13279;51.300;12.394;2023-03-11T09:17:46;1.50;99.90
25328;DHT22;13279;51.300;12.394;2023-03-11T09:20:14;1.50;99.90
25328;DHT22;13279;51.300;12.394;2023-03-11T09:22:42;1.50;99.90
25328;DHT22;13279;51.300;12.394;2023-03-11T09:25:10;1.50;99.90
25328;DHT22;13279;51.300;12.394;2023-03-11T09:27:38;1.50;99.90
25328;DHT22;13279;51.300;12.394;2023-03-11T09:30:07;1.50;99.90
25328;DHT22;13279;51.300;12.394;2023-03-11T09:32:36;1.60;99.90
25328;DHT22;13279;51.300;12.394;2023-03-11T09:35:04;1.70;99.90
25328;DHT22;13279;51.300;12.394;2023-03-11T09:37:31;1.70;99.90
25328;DHT22;13279;51.300;12.394;2023-03-11T09:39:58;1.80;99.90
25328;DHT22;13279;51.300;12.394;2023-03-11T09:42:32;1.80;99.90
25328;DHT22;13279;51.300;12.394;2023-03-11T09:45:09;1.90;99.90
25328;DHT22;13279;51.300;12.394;2023-03-11T09:47:40;2.00;99.90
25328;DHT22;13279;51.300;12.394;2023-03-11T09:50:21;2.00;99.90
25328;DHT22;13279;51.300;12.394;2023-03-11T09:53:09;2.10;99.90
25328;DHT22;13279;51.300;12.394;2023-03-11T09:55:45;2.20;99.90
25328;DHT22;13279;51.300;12.394;2023-03-11T09:58:16;2.20;99.90
25328;DHT22;13279;51.300;12.394;2023-03-11T10:00:47;2.20;99.90
25328;DHT22;13279;51.300;12.394;2023-03-11T10:03:27;2.20;99.90
25328;DHT22;13279;51.300;12.394;2023-03-11T10:06:02;2.20;99.90
25328;DHT22;13279;51.300;12.394;2023-03-11T10:08:37;2.20;99.90
25328;DHT22;13279;51.300;12.394;2023-03-11T10:11:15;2.20;99.90
25328;DHT22;13279;51.300;12.394;2023-03-11T10:13:53;2.20;99.90
25328;DHT22;13279;51.300;12.394;2023-03-11T10:16:27;2.40;99.90
25328;DHT22;13279;51.300;12.394;2023-03-11T10:19:08;2.50;99.90
25328;DHT22;13279;51.300;12.394;2023-03-11T10:21:46;2.40;99.90
25328;DHT22;13279;51.300;12.394;2023-03-11T10:24:31;2.30;99.90
25328;DHT22;13279;51.300;12.394;2023-03-11T10:27:05;2.40;99.90
25328;DHT22;13279;51.300;12.394;2023-03-11T10:29:42;2.30;99.90
25328;DHT22;13279;51.300;12.394;2023-03-11T10:32:14;2.30;99.90
25328;DHT22;13279;51.300;12.394;2023-03-11T10:34:48;2.40;99.90
25328;DHT22;13279;51.300;12.394;2023-03-11T10:37:22;2.40;99.90
25328;DHT22;13279;51.300;12.394;2023-03-11T10:39:51;2.50;99.90
25328;DHT22;13279;51.300;12.394;2023-03-11T10:42:21;2.50;99.90
25328;DHT22;13279;51.300;12.394;2023-03-11T10:44:50;2.50;99.90
25328;DHT22;13279;51.300;12.394;2023-03-11T10:47:19;2.20;99.90
25328;DHT22;13279;51.300;12.394;2023-03-11T10:49:49;2.30;99.90
25328;DHT22;13279;51.300;12.394;2023-03-11T10:52:17;2.30;99.90
25328;DHT22;13279;51.300;12.394;2023-03-11T10:54:46;2.20;99.90
25328;DHT22;13279;51.300;12.394;2023-03-11T10:57:23;2.10;99.90
25328;DHT22;13279;51.300;12.394;2023-03-11T10:59:53;2.20;99.90
25328;DHT22;13279;51.300;12.394;2023-03-11T11:02:26;2.20;99.90
25328;DHT22;13279;51.300;12.394;2023-03-11T11:05:19;2.30;99.90
25328;DHT22;13279;51.300;12.394;2023-03-11T11:07:51;2.30;99.90
25328;DHT22;13279;51.300;12.394;2023-03-11T11:10:28;2.50;99.90
25328;DHT22;13279;51.300;12.394;2023-03-11T11:12:57;2.50;99.90
25328;DHT22;13279;51.300;12.394;2023-03-11T11:15:28;2.60;99.90
25328;DHT22;13279;51.300;12.394;2023-03-11T11:17:58;2.50;99.90
25328;DHT22;13279;51.300;12.394;2023-03-11T11:20:29;2.50;99.90
25328;DHT22;13279;51.300;12.394;2023-03-11T11:22:59;2.50;99.90
25328;DHT22;13279;51.300;12.394;2023-03-11T11:25:29;2.40;99.90
25328;DHT22;13279;51.300;12.394;2023-03-11T11:27:59;2.40;99.90
25328;DHT22;13279;51.300;12.394;2023-03-11T11:30:27;2.50;99.90
25328;DHT22;13279;51.300;12.394;2023-03-11T11:32:55;2.50;99.90
25328;DHT22;13279;51.300;12.394;2023-03-11T11:35:23;2.50;99.90
25328;DHT22;13279;51.300;12.394;2023-03-11T11:37:58;2.40;99.90
25328;DHT22;13279;51.300;12.394;2023-03-11T11:40:27;2.50;99.90
25328;DHT22;13279;51.300;12.394;2023-03-11T11:42:58;2.50;99.90
25328;DHT22;13279;51.300;12.394;2023-03-11T11:45:33;2.60;99.90
25328;DHT22;13279;51.300;12.394;2023-03-11T11:48:08;2.50;99.90
25328;DHT22;13279;51.300;12.394;2023-03-11T11:50:42;2.50;99.90
25328;DHT22;13279;51.300;12.394;2023-03-11T11:53:19;2.60;99.90
25328;DHT22;13279;51.300;12.394;2023-03-11T11:55:49;2.70;99.90
25328;DHT22;13279;51.300;12.394;2023-03-11T11:58:17;2.70;99.90
25328;DHT22;13279;51.300;12.394;2023-03-11T12:00:53;2.70;99.90
25328;DHT22;13279;51.300;12.394;2023-03-11T12:03:55;2.70;99.90
25328;DHT22;13279;51.300;12.394;2023-03-11T12:06:30;2.70;99.90
25328;DHT22;13279;51.300;12.394;2023-03-11T12:09:09;2.70;99.90
25328;DHT22;13279;51.300;12.394;2023-03-11T12:11:45;2.60;99.90
25328;DHT22;13279;51.300;12.394;2023-03-11T12:14:20;2.60;99.90
25328;DHT22;13279;51.300;12.394;2023-03-11T12:16:55;2.60;99.90
25328;DHT22;13279;51.300;12.394;2023-03-11T12:19:33;2.60;99.90
25328;DHT22;13279;51.300;12.394;2023-03-11T12:25:23;2.70;99.90
25328;DHT22;13279;51.300;12.394;2023-03-11T12:27:56;2.80;99.90
25328;DHT22;13279;51.300;12.394;2023-03-11T12:30:28;2.80;99.90
25328;DHT22;13279;51.300;12.394;2023-03-11T12:32:59;2.80;99.90
25328;DHT22;13279;51.300;12.394;2023-03-11T12:35:30;2.90;99.90
25328;DHT22;13279;51.300;12.394;2023-03-11T12:38:03;2.90;99.90
25328;DHT22;13279;51.300;12.394;2023-03-11T12:40:57;2.90;99.90
25328;DHT22;13279;51.300;12.394;2023-03-11T12:46:16;2.90;99.90
25328;DHT22;13279;51.300;12.394;2023-03-11T12:48:45;3.00;1.00
25328;DHT22;13279;51.300;12.394;2023-03-11T12:51:38;3.00;1.00
25328;DHT22;13279;51.300;12.394;2023-03-11T12:54:28;3.10;1.00
25328;DHT22;13279;51.300;12.394;2023-03-11T12:56:59;3.00;99.90
25328;DHT22;13279;51.300;12.394;2023-03-11T12:59:50;3.00;99.90
25328;DHT22;13279;51.300;12.394;2023-03-11T13:02:29;3.00;1.00
25328;DHT22;13279;51.300;12.394;2023-03-11T13:05:12;3.10;1.00
25328;DHT22;13279;51.300;12.394;2023-03-11T13:07:45;3.10;99.90
25328;DHT22;13279;51.300;12.394;2023-03-11T13:10:20;3.00;1.00
25328;DHT22;13279;51.300;12.394;2023-03-11T13:13:01;3.00;1.00
25328;DHT22;13279;51.300;12.394;2023-03-11T13:15:39;3.00;1.00
25328;DHT22;13279;51.300;12.394;2023-03-11T13:18:16;3.00;1.00
25328;DHT22;13279;51.300;12.394;2023-03-11T13:20:55;3.00;1.00
25328;DHT22;13279;51.300;12.394;2023-03-11T13:23:29;3.10;1.00
25328;DHT22;13279;51.300;12.394;2023-03-11T13:26:29;3.10;1.00
25328;DHT22;13279;51.300;12.394;2023-03-11T13:29:30;3.10;1.00
25328;DHT22;13279;51.300;12.394;2023-03-11T13:35:07;3.20;99.90
25328;DHT22;13279;51.300;12.394;2023-03-11T13:37:43;3.10;99.90
25328;DHT22;13279;51.300;12.394;2023-03-11T13:40:27;3.10;99.90
25328;DHT22;13279;51.300;12.394;2023-03-11T13:42:59;3.10;99.90
25328;DHT22;13279;51.300;12.394;2023-03-11T13:45:32;3.00;99.90
25328;DHT22;13279;51.300;12.394;2023-03-11T13:48:03;3.00;99.90
25328;DHT22;13279;51.300;12.394;2023-03-11T13:50:36;3.00;87.70
25328;DHT22;13279;51.300;12.394;2023-03-11T13:53:08;3.00;99.90
25328;DHT22;13279;51.300;12.394;2023-03-11T13:55:39;3.00;99.90
25328;DHT22;13279;51.300;12.394;2023-03-11T13:58:15;3.10;99.90
25328;DHT22;13279;51.300;12.394;2023-03-11T14:00:49;3.10;99.90
25328;DHT22;13279;51.300;12.394;2023-03-11T14:03:17;3.10;99.90
25328;DHT22;13279;51.300;12.394;2023-03-11T14:05:49;3.10;99.90
25328;DHT22;13279;51.300;12.394;2023-03-11T14:08:20;3.20;99.90
25328;DHT22;13279;51.300;12.394;2023-03-11T14:10:52;3.20;99.90
25328;DHT22;13279;51.300;12.394;2023-03-11T14:13:20;3.20;99.90
25328;DHT22;13279;51.300;12.394;2023-03-11T14:15:58;3.20;99.90
25328;DHT22;13279;51.300;12.394;2023-03-11T14:18:37;3.20;99.90
25328;DHT22;13279;51.300;12.394;2023-03-11T14:21:11;3.20;99.90
25328;DHT22;13279;51.300;12.394;2023-03-11T14:23:41;3.30;99.90
25328;DHT22;13279;51.300;12.394;2023-03-11T14:26:13;3.30;99.90
25328;DHT22;13279;51.300;12.394;2023-03-11T14:28:43;3.50;99.90
25328;DHT22;13279;51.300;12.394;2023-03-11T14:31:28;4.20;99.90
25328;DHT22;13279;51.300;12.394;2023-03-11T14:33:57;5.00;99.90
25328;DHT22;13279;51.300;12.394;2023-03-11T14:36:30;5.80;99.90
25328;DHT22;13279;51.300;12.394;2023-03-11T14:38:57;6.00;99.90
25328;DHT22;13279;51.300;12.394;2023-03-11T14:41:25;6.00;99.90
25328;DHT22;13279;51.300;12.394;2023-03-11T14:43:53;5.80;99.90
25328;DHT22;13279;51.300;12.394;2023-03-11T14:46:25;5.50;99.90
25328;DHT22;13279;51.300;12.394;2023-03-11T14:48:55;5.10;99.90
25328;DHT22;13279;51.300;12.394;2023-03-11T14:51:25;5.10;99.90
25328;DHT22;13279;51.300;12.394;2023-03-11T14:54:03;5.30;99.90
25328;DHT22;13279;51.300;12.394;2023-03-11T14:56:35;6.00;99.90
25328;DHT22;13279;51.300;12.394;2023-03-11T14:59:06;6.40;99.90
25328;DHT22;13279;51.300;12.394;2023-03-11T15:01:38;6.60;99.90
25328;DHT22;13279;51.300;12.394;2023-03-11T15:04:10;6.60;99.90
25328;DHT22;13279;51.300;12.394;2023-03-11T15:06:41;6.80;99.90
25328;DHT22;13279;51.300;12.394;2023-03-11T15:09:11;7.20;99.90
25328;DHT22;13279;51.300;12.394;2023-03-11T15:11:47;7.50;99.90
25328;DHT22;13279;51.300;12.394;2023-03-11T15:14:20;7.40;99.90
25328;DHT22;13279;51.300;12.394;2023-03-11T15:16:51;7.30;99.90
25328;DHT22;13279;51.300;12.394;2023-03-11T15:19:31;7.60;99.90
25328;DHT22;13279;51.300;12.394;2023-03-11T15:22:06;7.80;99.90
25328;DHT22;13279;51.300;12.394;2023-03-11T15:24:49;7.80;99.90
25328;DHT22;13279;51.300;12.394;2023-03-11T15:27:26;7.80;99.90
25328;DHT22;13279;51.300;12.394;2023-03-11T15:29:55;7.80;99.90
25328;DHT22;13279;51.300;12.394;2023-03-11T15:32:36;7.60;99.90
25328;DHT22;13279;51.300;12.394;2023-03-11T15:35:14;7.40;99.90
25328;DHT22;13279;51.300;12.394;2023-03-11T15:37:43;7.20;99.90
25328;DHT22;13279;51.300;12.394;2023-03-11T15:40:17;7.10;99.90
25328;DHT22;13279;51.300;12.394;2023-03-11T15:42:47;7.30;99.90
25328;DHT22;13279;51.300;12.394;2023-03-11T15:45:16;7.20;99.90
25328;DHT22;13279;51.300;12.394;2023-03-11T15:47:47;7.10;99.90
25328;DHT22;13279;51.300;12.394;2023-03-11T15:50:19;7.20;99.90
25328;DHT22;13279;51.300;12.394;2023-03-11T15:52:49;7.00;99.90
25328;DHT22;13279;51.300;12.394;2023-03-11T15:55:16;7.20;99.90
25328;DHT22;13279;51.300;12.394;2023-03-11T15:57:45;7.20;99.90
25328;DHT22;13279;51.300;12.394;2023-03-11T16:00:19;7.20;99.90
25328;DHT22;13279;51.300;12.394;2023-03-11T16:02:49;7.10;99.90
25328;DHT22;13279;51.300;12.394;2023-03-11T16:05:18;7.10;99.90
25328;DHT22;13279;51.300;12.394;2023-03-11T16:07:47;7.10;99.90
25328;DHT22;13279;51.300;12.394;2023-03-11T16:10:16;7.00;99.90
25328;DHT22;13279;51.300;12.394;2023-03-11T16:12:44;6.80;99.90
25328;DHT22;13279;51.300;12.394;2023-03-11T16:15:19;6.50;99.90
25328;DHT22;13279;51.300;12.394;2023-03-11T16:17:51;6.10;99.90